Peterstown, West Virginia
Current Conditions -  °F | °C
As of 9:15 AM on Friday 28 Nov 2014 (Local Time) from KPSK Reporting Station
Broken Clouds Broken Clouds  
Wind Chill: 21°   Ceiling: 2600
Heat Index: 28°   Visibility: 10mi
Dew Point: 17°   Wind: 7mph
Humidity: 62%   Direction: 310°NW
Pressure: 30.32"   Gusts: NA
Location:  37.4°N, 80.8°W
Report Text: KPSK 281415Z AUTO 31006KT 10SM SCT018 BKN026 BKN031 M02/M08 A3032 RMK AO2 T10221085
Loading
Personal Weather Stations






























Interactive Weather Map New forecast layout! Learn more

10-Day Weather Forecast

Advertisements
Track Severe Weather on mobile